Time;durP1;ratioP1;P1;durP2;ratioP2;P2;SDS_P1;SDS_P2;PMS_P1;PMS_P2;Temp;Humidity;BMP_temperature;BMP_pressure;BME280_temperature;BME280_humidity;BME280_pressure;Samples;Min_cycle;Max_cycle;Signal;HPM_P1;HPM_P2
2023/05/16 00:00:07;;;;;;;11.23;9.53;;;13.90;99.90;;;;;;5050562;28;20409;-73
2023/05/16 00:02:34;;;;;;;9.83;8.60;;;13.90;99.90;;;;;;5049966;28;20514;-75
2023/05/16 00:05:00;;;;;;;9.67;8.67;;;13.90;99.90;;;;;;5050409;28;20466;-74
2023/05/16 00:07:26;;;;;;;10.00;8.30;;;13.80;99.90;;;;;;5032621;28;20420;-74
2023/05/16 00:09:51;;;;;;;9.70;8.70;;;13.80;99.90;;;;;;5050563;28;20186;-75
2023/05/16 00:12:18;;;;;;;9.90;7.83;;;13.80;99.90;;;;;;5050516;28;20206;-74
2023/05/16 00:14:44;;;;;;;8.60;7.17;;;13.80;99.90;;;;;;5050279;28;20614;-74
2023/05/16 00:17:10;;;;;;;8.93;6.67;;;13.80;99.90;;;;;;5050444;28;20555;-75
2023/05/16 00:19:40;;;;;;;9.03;8.00;;;13.80;99.90;;;;;;5032505;28;20217;-74
2023/05/16 00:22:06;;;;;;;9.23;7.33;;;13.70;99.90;;;;;;5049030;28;20539;-73
2023/05/16 00:24:33;;;;;;;8.40;6.43;;;13.60;99.90;;;;;;5050082;28;21019;-74
2023/05/16 00:26:59;;;;;;;7.93;6.67;;;13.60;99.90;;;;;;5050175;28;20185;-74
2023/05/16 00:29:25;;;;;;;6.73;5.53;;;13.50;99.90;;;;;;5049976;28;20424;-73
2023/05/16 00:31:50;;;;;;;6.90;6.20;;;13.50;99.90;;;;;;5050608;28;20220;-73
2023/05/16 00:34:16;;;;;;;5.83;5.30;;;13.50;99.90;;;;;;5050014;28;20826;-73
2023/05/16 00:36:42;;;;;;;5.83;5.23;;;13.50;99.90;;;;;;5050414;28;20272;-75
2023/05/16 00:39:10;;;;;;;4.73;4.23;;;13.50;99.90;;;;;;5032191;28;20229;-74
2023/05/16 00:41:36;;;;;;;6.87;4.90;;;13.40;99.90;;;;;;5049781;28;20875;-75
2023/05/16 00:44:02;;;;;;;5.20;4.50;;;13.40;99.90;;;;;;5049953;28;20507;-74
2023/05/16 00:46:28;;;;;;;4.80;4.07;;;13.30;99.90;;;;;;5050176;28;20515;-74
2023/05/16 00:48:54;;;;;;;7.20;4.90;;;13.30;99.90;;;;;;5049728;28;20269;-73
2023/05/16 00:51:19;;;;;;;5.43;4.10;;;13.30;99.90;;;;;;5049783;28;20184;-73
2023/05/16 00:53:45;;;;;;;4.70;3.80;;;13.20;99.90;;;;;;5049656;28;20178;-74
2023/05/16 00:56:11;;;;;;;4.53;3.77;;;13.20;99.90;;;;;;5050010;28;20686;-74
2023/05/16 00:58:37;;;;;;;4.70;3.73;;;13.20;99.90;;;;;;5049468;28;20582;-74
2023/05/16 01:01:03;;;;;;;4.60;4.20;;;13.30;99.90;;;;;;5031505;28;20210;-74
2023/05/16 01:03:30;;;;;;;5.30;4.10;;;13.20;99.90;;;;;;5049648;28;20170;-74
2023/05/16 01:05:57;;;;;;;5.40;4.10;;;13.20;99.90;;;;;;5049832;28;20419;-73
2023/05/16 01:08:23;;;;;;;5.47;4.40;;;13.30;99.90;;;;;;5031699;28;20435;-74
2023/05/16 01:11:25;;;;;;;4.80;4.40;;;13.30;99.90;;;;;;5031488;28;20416;-73
2023/05/16 01:14:16;;;;;;;6.63;3.90;;;13.30;99.90;;;;;;5049448;28;20595;-74
2023/05/16 01:16:46;;;;;;;4.73;4.33;;;13.20;99.90;;;;;;5049760;28;20962;-75
2023/05/16 01:19:31;;;;;;;5.43;4.37;;;13.20;99.90;;;;;;5049562;28;20416;-75
2023/05/16 01:22:04;;;;;;;4.23;3.83;;;13.20;99.90;;;;;;5030054;28;20999;-74
2023/05/16 01:24:30;;;;;;;4.00;3.70;;;13.10;99.90;;;;;;5061961;28;20785;-74
2023/05/16 01:26:58;;;;;;;3.70;2.70;;;13.10;99.90;;;;;;5049005;28;20418;-74
2023/05/16 01:29:24;;;;;;;2.97;2.57;;;13.00;99.90;;;;;;5031327;28;20174;-74
2023/05/16 01:31:50;;;;;;;3.10;2.80;;;13.00;99.90;;;;;;5049464;28;20823;-74
2023/05/16 01:34:17;;;;;;;3.33;3.03;;;12.90;99.90;;;;;;5049035;28;20646;-73
2023/05/16 01:36:59;;;;;;;3.93;2.73;;;12.90;99.90;;;;;;5031398;28;20420;-75
2023/05/16 01:39:44;;;;;;;3.17;2.60;;;12.90;99.90;;;;;;5030883;28;20515;-74
2023/05/16 01:42:14;;;;;;;3.10;2.77;;;12.90;99.90;;;;;;5048267;28;20547;-74
2023/05/16 01:44:54;;;;;;;3.07;2.77;;;12.80;99.90;;;;;;5048724;28;20409;-74
2023/05/16 01:47:24;;;;;;;3.90;3.07;;;12.80;99.90;;;;;;5048790;28;20412;-73
2023/05/16 01:50:16;;;;;;;2.73;2.17;;;12.70;99.90;;;;;;5048606;28;20409;-74
2023/05/16 01:53:21;;;;;;;3.17;2.17;;;12.70;99.90;;;;;;5048813;28;20443;-72
2023/05/16 01:55:50;;;;;;;5.23;2.63;;;12.60;99.90;;;;;;5048236;28;20415;-75
2023/05/16 01:58:22;;;;;;;4.53;1.80;;;12.60;99.90;;;;;;5048597;28;20505;-74
2023/05/16 02:00:48;;;;;;;3.27;2.33;;;12.60;99.90;;;;;;5048343;28;20455;-74
2023/05/16 02:03:13;;;;;;;4.93;2.17;;;12.50;99.90;;;;;;5048353;28;20472;-74
2023/05/16 02:05:39;;;;;;;4.50;2.40;;;12.50;99.90;;;;;;5048828;28;20177;-74
2023/05/16 02:08:05;;;;;;;4.07;2.37;;;12.40;99.90;;;;;;5048507;28;20185;-74
2023/05/16 02:10:31;;;;;;;4.07;2.20;;;12.40;99.90;;;;;;5048305;28;20189;-74
2023/05/16 02:12:56;;;;;;;4.13;2.20;;;12.30;99.90;;;;;;5048642;28;20212;-74
2023/05/16 02:15:22;;;;;;;6.60;2.60;;;12.30;99.90;;;;;;5048230;28;20195;-75
2023/05/16 02:17:48;;;;;;;2.37;2.00;;;12.30;99.90;;;;;;5048463;28;20186;-74
2023/05/16 02:20:14;;;;;;;6.47;2.33;;;12.20;99.90;;;;;;5048247;28;20423;-74
2023/05/16 02:22:42;;;;;;;5.57;2.50;;;12.10;99.90;;;;;;5046999;28;20664;-74
2023/05/16 02:25:09;;;;;;;7.63;2.40;;;12.10;99.90;;;;;;5030369;28;20448;-74
2023/05/16 02:27:35;;;;;;;8.90;2.80;;;12.20;99.90;;;;;;5048252;28;20495;-74
2023/05/16 02:30:01;;;;;;;8.90;2.73;;;12.10;99.90;;;;;;5030584;28;20435;-74
2023/05/16 02:32:26;;;;;;;7.17;2.87;;;12.10;99.90;;;;;;5030663;28;20444;-75
2023/05/16 02:34:52;;;;;;;4.87;2.87;;;12.10;99.90;;;;;;5047996;28;20551;-73
2023/05/16 02:37:17;;;;;;;6.90;3.53;;;12.10;99.90;;;;;;5048319;28;20668;-74
2023/05/16 02:39:43;;;;;;;6.80;3.57;;;12.10;99.90;;;;;;5048193;28;20259;-73
2023/05/16 02:42:09;;;;;;;9.23;2.93;;;12.00;99.90;;;;;;5048098;28;20220;-74
2023/05/16 02:44:35;;;;;;;5.47;3.30;;;12.00;99.90;;;;;;5030577;28;20308;-74
2023/05/16 02:47:01;;;;;;;7.23;2.80;;;12.00;99.90;;;;;;5048076;28;20499;-74
2023/05/16 02:49:26;;;;;;;6.33;4.57;;;11.90;99.90;;;;;;5048158;28;20174;-74
2023/05/16 02:51:52;;;;;;;8.70;3.00;;;11.90;99.90;;;;;;5048984;28;20208;-73
2023/05/16 02:54:18;;;;;;;9.87;3.00;;;11.90;99.90;;;;;;5052138;28;20220;-72
2023/05/16 02:56:44;;;;;;;7.40;2.80;;;11.90;99.90;;;;;;5052166;28;20417;-72
2023/05/16 02:59:10;;;;;;;7.30;2.93;;;11.90;99.90;;;;;;5052383;28;20177;-74
2023/05/16 03:01:36;;;;;;;4.90;2.73;;;11.90;99.90;;;;;;5051824;28;20296;-74
2023/05/16 03:04:02;;;;;;;7.53;3.53;;;11.90;99.90;;;;;;5052006;28;20504;-75
2023/05/16 03:06:29;;;;;;;10.03;4.03;;;11.90;99.90;;;;;;5052164;28;20419;-74
2023/05/16 03:08:55;;;;;;;9.07;3.97;;;12.00;99.90;;;;;;5051980;28;20821;-73
2023/05/16 03:11:22;;;;;;;8.57;2.87;;;12.00;99.90;;;;;;5051630;28;20469;-72
2023/05/16 03:13:49;;;;;;;6.67;2.83;;;11.90;99.90;;;;;;5033803;28;20495;-74
2023/05/16 03:16:15;;;;;;;6.40;3.90;;;12.00;99.90;;;;;;5033977;28;21369;-73
2023/05/16 03:18:41;;;;;;;7.20;3.90;;;11.90;99.90;;;;;;5051728;28;20916;-72
2023/05/16 03:21:07;;;;;;;6.53;4.17;;;11.90;99.90;;;;;;5049817;28;20462;-73
2023/05/16 03:23:32;;;;;;;8.70;4.23;;;11.90;99.90;;;;;;5051389;28;20983;-74
2023/05/16 03:25:58;;;;;;;4.33;3.10;;;11.90;99.90;;;;;;5051528;28;20281;-74
2023/05/16 03:28:24;;;;;;;9.20;4.00;;;11.90;99.90;;;;;;5051441;28;20688;-74
2023/05/16 03:30:50;;;;;;;8.20;3.63;;;11.90;99.90;;;;;;5051267;28;20181;-73
2023/05/16 03:33:16;;;;;;;10.53;3.80;;;11.90;99.90;;;;;;5050980;28;20431;-73
2023/05/16 03:35:42;;;;;;;6.37;3.20;;;11.90;99.90;;;;;;5017171;28;20197;-72
2023/05/16 03:38:08;;;;;;;15.00;4.37;;;11.90;99.90;;;;;;5050898;28;20173;-74
2023/05/16 03:40:34;;;;;;;8.30;4.37;;;12.00;99.90;;;;;;5050924;28;20412;-73
2023/05/16 03:43:00;;;;;;;7.73;4.60;;;12.00;99.90;;;;;;5050900;28;20815;-74
2023/05/16 03:45:26;;;;;;;7.33;3.87;;;11.90;99.90;;;;;;5033365;28;20412;-73
2023/05/16 03:47:52;;;;;;;7.53;3.73;;;11.90;99.90;;;;;;5050718;28;20197;-72
2023/05/16 03:50:17;;;;;;;6.07;3.20;;;11.90;99.90;;;;;;5051080;28;20290;-74
2023/05/16 03:52:43;;;;;;;6.27;2.90;;;11.90;99.90;;;;;;5032970;28;20541;-74
2023/05/16 03:55:09;;;;;;;8.33;3.70;;;11.90;99.90;;;;;;5050950;28;20217;-73
2023/05/16 03:57:37;;;;;;;9.03;3.40;;;11.70;99.90;;;;;;5050562;28;20188;-73
2023/05/16 04:00:05;;;;;;;8.40;3.50;;;11.80;99.90;;;;;;5050730;28;20519;-72
2023/05/16 04:02:31;;;;;;;9.67;2.80;;;11.70;99.90;;;;;;5050501;28;20554;-74
2023/05/16 04:04:57;;;;;;;9.10;3.97;;;11.70;99.90;;;;;;5049681;28;20408;-72
2023/05/16 04:07:22;;;;;;;7.77;3.20;;;11.70;99.90;;;;;;5050457;28;20201;-73
2023/05/16 04:09:48;;;;;;;12.13;4.00;;;11.70;99.90;;;;;;5050567;28;20268;-73
2023/05/16 04:12:14;;;;;;;12.10;4.10;;;11.70;99.90;;;;;;5032789;28;20273;-74
2023/05/16 04:14:39;;;;;;;15.50;4.17;;;11.50;99.90;;;;;;5032575;28;20181;-73
2023/05/16 04:17:05;;;;;;;6.50;3.43;;;11.50;99.90;;;;;;5050041;28;20654;-73
2023/05/16 04:19:31;;;;;;;9.90;2.70;;;11.40;99.90;;;;;;5050204;28;20260;-73
2023/05/16 04:21:56;;;;;;;9.97;3.10;;;11.40;99.90;;;;;;5049005;28;20563;-74
2023/05/16 04:24:25;;;;;;;10.23;3.27;;;11.30;99.90;;;;;;5050176;28;20186;-73
2023/05/16 04:26:51;;;;;;;10.80;3.07;;;11.30;99.90;;;;;;5049967;28;20260;-73
2023/05/16 04:29:17;;;;;;;9.93;3.60;;;11.30;99.90;;;;;;5032517;28;20415;-72
2023/05/16 04:31:42;;;;;;;8.27;2.70;;;11.30;99.90;;;;;;5050021;28;20443;-74
2023/05/16 04:34:08;;;;;;;8.30;4.10;;;11.20;99.90;;;;;;5050202;28;20186;-74
2023/05/16 04:36:34;;;;;;;8.07;3.83;;;11.20;99.90;;;;;;5050192;28;20213;-73
2023/05/16 04:39:00;;;;;;;6.17;2.90;;;11.20;99.90;;;;;;5049067;28;20204;-74
2023/05/16 04:41:26;;;;;;;8.83;3.83;;;11.40;99.90;;;;;;5049400;28;20983;-72
2023/05/16 04:43:52;;;;;;;10.33;3.67;;;11.40;99.90;;;;;;5050268;28;20423;-74
2023/05/16 04:46:19;;;;;;;7.53;3.37;;;11.40;99.90;;;;;;5049967;28;20631;-75
2023/05/16 04:48:45;;;;;;;7.97;3.10;;;11.40;99.90;;;;;;5049781;28;20417;-74
2023/05/16 04:51:11;;;;;;;12.50;3.10;;;11.40;99.90;;;;;;5029460;28;20439;-72
2023/05/16 04:53:36;;;;;;;17.17;4.97;;;11.40;99.90;;;;;;5043335;28;20221;-73
2023/05/16 04:56:04;;;;;;;9.20;3.43;;;11.40;99.90;;;;;;5049601;28;20642;-73
2023/05/16 04:58:30;;;;;;;13.07;3.70;;;11.50;99.90;;;;;;5048364;28;20194;-74
2023/05/16 05:00:56;;;;;;;9.13;3.63;;;11.40;99.90;;;;;;5031248;28;20987;-73
2023/05/16 05:03:22;;;;;;;12.30;3.83;;;11.50;99.90;;;;;;5049118;28;20543;-74
2023/05/16 05:05:48;;;;;;;9.10;3.60;;;11.50;99.90;;;;;;5048824;28;20408;-74
2023/05/16 05:08:15;;;;;;;9.63;3.07;;;11.50;99.90;;;;;;5049167;28;20952;-74
2023/05/16 05:10:41;;;;;;;7.60;2.80;;;11.40;99.90;;;;;;5049366;28;20185;-74
2023/05/16 05:13:07;;;;;;;5.67;2.97;;;11.50;99.90;;;;;;5049023;28;20429;-74
2023/05/16 05:15:32;;;;;;;6.83;4.00;;;11.50;99.90;;;;;;5049598;28;20185;-73
2023/05/16 05:17:58;;;;;;;10.23;3.40;;;11.40;99.90;;;;;;5046953;28;20513;-74
2023/05/16 05:20:24;;;;;;;10.00;3.27;;;11.50;99.90;;;;;;5046528;28;20189;-74
2023/05/16 05:22:49;;;;;;;6.20;3.30;;;11.50;99.90;;;;;;5031303;28;20198;-74
2023/05/16 05:25:15;;;;;;;8.50;3.33;;;11.50;99.90;;;;;;5049143;28;20557;-74
2023/05/16 05:27:41;;;;;;;9.83;3.30;;;11.50;99.90;;;;;;5048861;28;20182;-74
2023/05/16 05:30:07;;;;;;;9.60;3.70;;;11.60;99.90;;;;;;5030195;28;20186;-74
2023/05/16 05:32:32;;;;;;;11.13;3.97;;;11.50;99.90;;;;;;5048496;28;20205;-74
2023/05/16 05:34:58;;;;;;;8.73;4.07;;;11.50;99.90;;;;;;5047306;28;20952;-74
2023/05/16 05:37:25;;;;;;;7.70;3.27;;;11.50;99.90;;;;;;5044920;28;20216;-74
2023/05/16 05:39:51;;;;;;;12.93;3.37;;;11.50;99.90;;;;;;5028946;28;20197;-74
2023/05/16 05:42:16;;;;;;;5.77;2.67;;;11.60;99.90;;;;;;5028977;28;20810;-74
2023/05/16 05:44:42;;;;;;;11.03;4.03;;;11.70;99.90;;;;;;5028708;28;20212;-74
2023/05/16 05:47:08;;;;;;;9.47;3.13;;;11.70;99.90;;;;;;5028795;28;20178;-74
2023/05/16 05:49:34;;;;;;;8.73;3.03;;;11.70;99.90;;;;;;5028699;28;20583;-75
2023/05/16 05:52:00;;;;;;;11.43;3.63;;;11.80;99.90;;;;;;5028939;28;20197;-74
2023/05/16 05:54:26;;;;;;;7.37;3.70;;;11.80;99.90;;;;;;5010799;28;21066;-74
2023/05/16 05:56:52;;;;;;;8.23;3.00;;;11.80;99.90;;;;;;5028619;28;20193;-73
2023/05/16 05:59:17;;;;;;;10.70;3.00;;;11.80;99.90;;;;;;5029223;28;20852;-73
2023/05/16 06:01:43;;;;;;;10.00;3.20;;;11.80;99.90;;;;;;5045005;28;20262;-74
2023/05/16 06:04:10;;;;;;;9.73;4.20;;;11.90;99.90;;;;;;5046693;28;20189;-74
2023/05/16 06:06:36;;;;;;;10.93;4.93;;;11.90;99.90;;;;;;5047181;28;20281;-74
2023/05/16 06:09:02;;;;;;;10.30;3.63;;;11.90;99.90;;;;;;5045074;28;20755;-74
2023/05/16 06:11:28;;;;;;;9.80;4.07;;;12.00;99.90;;;;;;5047471;28;20450;-74
2023/05/16 06:13:53;;;;;;;9.43;3.20;;;12.10;99.90;;;;;;5047400;28;20189;-74
2023/05/16 06:16:26;;;;;;;11.47;2.87;;;12.20;99.90;;;;;;5030639;28;20226;-74
2023/05/16 06:18:52;;;;;;;10.90;3.30;;;12.20;99.90;;;;;;5046358;28;20467;-74
2023/05/16 06:21:17;;;;;;;9.80;3.80;;;12.20;99.90;;;;;;5047635;28;20960;-74
2023/05/16 06:23:43;;;;;;;6.50;2.93;;;12.20;99.90;;;;;;5046660;28;20193;-74
2023/05/16 06:26:09;;;;;;;10.10;3.00;;;12.30;99.90;;;;;;5047624;28;20181;-75
2023/05/16 06:28:34;;;;;;;9.30;3.00;;;12.40;99.90;;;;;;5054432;28;20257;-74
2023/05/16 06:31:00;;;;;;;14.33;3.43;;;12.50;99.90;;;;;;5055070;28;20239;-74
2023/05/16 06:33:26;;;;;;;9.93;3.33;;;12.50;99.90;;;;;;5054383;28;20193;-73
2023/05/16 06:35:51;;;;;;;7.67;3.10;;;12.60;99.90;;;;;;5055029;28;20247;-75
2023/05/16 06:38:18;;;;;;;11.67;3.13;;;12.50;99.90;;;;;;5053118;28;20191;-74
2023/05/16 06:40:44;;;;;;;10.37;3.40;;;12.50;99.90;;;;;;5054880;28;20693;-74
2023/05/16 06:43:10;;;;;;;9.30;2.50;;;12.50;99.90;;;;;;5054170;28;20440;-74
2023/05/16 06:45:36;;;;;;;7.20;3.43;;;12.50;99.90;;;;;;5054913;28;20770;-74
2023/05/16 06:48:03;;;;;;;8.60;3.03;;;12.60;99.90;;;;;;5036437;28;20469;-74
2023/05/16 06:50:28;;;;;;;13.17;2.40;;;12.60;99.90;;;;;;5054480;28;20413;-75
2023/05/16 06:52:54;;;;;;;5.53;2.77;;;12.70;99.90;;;;;;5054536;28;20518;-74
2023/05/16 06:55:20;;;;;;;10.23;2.80;;;12.60;99.90;;;;;;5036581;28;20638;-74
2023/05/16 06:57:46;;;;;;;6.07;2.00;;;12.70;99.90;;;;;;5054338;28;20226;-74
2023/05/16 07:00:13;;;;;;;8.03;2.67;;;12.70;99.90;;;;;;5054312;28;20186;-74
2023/05/16 07:02:38;;;;;;;5.80;2.33;;;12.70;99.90;;;;;;5054306;28;20459;-75
2023/05/16 07:05:05;;;;;;;7.43;2.47;;;12.80;99.90;;;;;;5054249;28;20419;-74
2023/05/16 07:07:31;;;;;;;4.47;1.60;;;12.80;99.90;;;;;;5054194;28;20182;-74
2023/05/16 07:09:57;;;;;;;8.00;2.17;;;12.90;99.90;;;;;;5036209;28;20411;-74
2023/05/16 07:12:22;;;;;;;7.60;2.00;;;12.90;99.90;;;;;;5054518;28;20327;-74
2023/05/16 07:14:48;;;;;;;3.70;1.57;;;13.00;99.90;;;;;;5054197;28;20204;-74
2023/05/16 07:17:15;;;;;;;4.90;1.90;;;13.00;99.90;;;;;;5036032;28;20547;-75
2023/05/16 07:19:40;;;;;;;10.67;1.77;;;13.10;99.90;;;;;;5054213;28;20189;-74
2023/05/16 07:22:06;;;;;;;11.17;2.00;;;13.30;99.90;;;;;;5054286;28;20467;-74
2023/05/16 07:24:32;;;;;;;5.13;1.57;;;13.30;99.90;;;;;;5053937;28;20203;-74
2023/05/16 07:26:58;;;;;;;8.37;2.50;;;13.40;99.90;;;;;;5036159;28;20162;-74
2023/05/16 07:29:24;;;;;;;10.07;2.27;;;13.50;99.90;;;;;;5053885;28;20188;-74
2023/05/16 07:31:50;;;;;;;7.00;2.13;;;13.40;99.90;;;;;;5052698;28;20201;-74
2023/05/16 07:34:16;;;;;;;6.30;1.80;;;13.50;99.90;;;;;;5036090;28;20404;-75
2023/05/16 07:36:41;;;;;;;9.10;2.10;;;13.60;99.90;;;;;;5054320;28;20182;-74
2023/05/16 07:39:07;;;;;;;7.23;2.40;;;13.70;99.90;;;;;;5032639;28;20201;-74
2023/05/16 07:41:33;;;;;;;4.30;2.10;;;13.70;99.90;;;;;;5050494;28;20275;-74
2023/05/16 07:43:58;;;;;;;6.93;2.80;;;13.70;99.90;;;;;;5032867;28;20181;-74
2023/05/16 07:46:24;;;;;;;5.50;2.37;;;13.80;99.90;;;;;;5033254;28;20200;-74
2023/05/16 07:48:50;;;;;;;6.70;2.40;;;13.90;99.90;;;;;;5050626;28;20639;-75
2023/05/16 07:51:16;;;;;;;7.50;2.20;;;13.90;99.90;;;;;;5050604;28;20278;-74
2023/05/16 07:53:41;;;;;;;4.77;1.70;;;14.00;99.90;;;;;;5050457;28;20186;-75
2023/05/16 07:56:07;;;;;;;4.20;1.77;;;14.00;99.90;;;;;;5050853;28;20283;-74
2023/05/16 07:58:33;;;;;;;4.83;1.50;;;13.90;99.90;;;;;;5050320;28;20174;-75
2023/05/16 08:00:59;;;;;;;11.70;2.13;;;13.90;99.90;;;;;;5050517;28;20452;-74
2023/05/16 08:03:25;;;;;;;2.87;1.33;;;13.80;99.90;;;;;;5050236;28;20190;-74
2023/05/16 08:05:51;;;;;;;5.33;2.50;;;13.70;99.90;;;;;;5050802;28;20166;-74
2023/05/16 08:08:17;;;;;;;5.80;1.67;;;13.70;99.90;;;;;;5032181;28;20416;-74
2023/05/16 08:10:43;;;;;;;3.80;1.77;;;13.70;99.90;;;;;;5050296;28;21023;-74
2023/05/16 08:13:09;;;;;;;4.57;1.80;;;13.60;99.90;;;;;;5050203;28;20432;-74
2023/05/16 08:15:34;;;;;;;8.67;1.60;;;13.60;99.90;;;;;;5050462;28;20245;-74
2023/05/16 08:18:00;;;;;;;8.43;1.93;;;13.50;99.90;;;;;;5050287;28;20174;-74
2023/05/16 08:20:26;;;;;;;6.03;1.90;;;13.50;99.90;;;;;;5050146;28;20205;-74
2023/05/16 08:22:53;;;;;;;3.60;1.77;;;13.50;99.90;;;;;;5050314;28;20296;-74
2023/05/16 08:25:19;;;;;;;4.23;1.50;;;13.60;99.90;;;;;;5049984;28;20423;-74
2023/05/16 08:27:46;;;;;;;3.40;1.40;;;13.60;99.90;;;;;;5050170;28;20412;-74
2023/05/16 08:30:12;;;;;;;4.23;1.30;;;13.50;99.90;;;;;;5048702;28;20941;-75
2023/05/16 08:32:37;;;;;;;5.77;1.60;;;13.60;99.90;;;;;;5050098;28;20429;-74
2023/05/16 08:35:03;;;;;;;6.97;1.63;;;13.60;99.90;;;;;;5049848;28;20417;-75
2023/05/16 08:37:29;;;;;;;7.50;2.43;;;13.60;99.90;;;;;;5049727;28;20283;-74
2023/05/16 08:39:55;;;;;;;3.87;1.40;;;13.60;99.90;;;;;;5048401;28;21081;-74
2023/05/16 08:42:21;;;;;;;7.90;2.27;;;13.60;99.90;;;;;;5031820;28;20217;-75
2023/05/16 08:44:46;;;;;;;2.10;1.13;;;13.60;99.90;;;;;;5049752;28;20543;-74
2023/05/16 08:47:17;;;;;;;6.73;1.57;;;13.60;99.90;;;;;;5049598;28;20174;-74
2023/05/16 08:49:46;;;;;;;3.70;1.23;;;13.60;99.90;;;;;;5031484;28;20186;-74
2023/05/16 08:52:13;;;;;;;5.90;1.53;;;13.60;99.90;;;;;;5049890;28;21066;-74
2023/05/16 08:54:39;;;;;;;4.77;1.47;;;13.70;99.90;;;;;;5031713;28;20412;-74
2023/05/16 08:57:06;;;;;;;2.60;1.17;;;13.70;99.90;;;;;;5049463;28;20408;-74
2023/05/16 08:59:32;;;;;;;4.83;1.47;;;13.80;99.90;;;;;;5049465;28;20412;-75
2023/05/16 09:01:58;;;;;;;5.90;1.47;;;13.80;99.90;;;;;;5049371;28;20474;-74
2023/05/16 09:04:24;;;;;;;3.97;1.53;;;13.90;99.90;;;;;;5049083;28;20180;-74
2023/05/16 09:06:51;;;;;;;6.10;1.20;;;13.90;99.90;;;;;;5031184;28;20916;-74
2023/05/16 09:09:17;;;;;;;2.93;1.67;;;14.00;99.90;;;;;;5049222;28;20496;-74
2023/05/16 09:11:42;;;;;;;3.57;1.37;;;14.00;99.90;;;;;;5049513;28;20523;-74
2023/05/16 09:14:08;;;;;;;6.90;1.67;;;14.00;99.90;;;;;;5049421;28;20326;-74
2023/05/16 09:16:34;;;;;;;3.53;1.87;;;14.00;99.90;;;;;;5049528;28;20205;-75
2023/05/16 09:19:00;;;;;;;4.60;1.87;;;13.90;99.90;;;;;;5031871;28;20173;-74
2023/05/16 09:21:31;;;;;;;2.17;1.00;;;13.90;99.90;;;;;;5049280;28;20656;-74
2023/05/16 09:24:04;;;;;;;5.13;1.50;;;14.00;99.90;;;;;;5049239;28;20419;-74
2023/05/16 09:26:35;;;;;;;3.67;1.70;;;14.00;99.90;;;;;;5031548;28;20509;-74
2023/05/16 09:29:01;;;;;;;4.87;1.70;;;14.10;99.20;;;;;;5049208;28;20419;-74
2023/05/16 09:31:36;;;;;;;4.00;2.00;;;14.20;99.90;;;;;;5013093;28;20444;-74
2023/05/16 09:34:03;;;;;;;3.63;1.40;;;14.30;99.90;;;;;;5031269;28;20412;-74
2023/05/16 09:36:31;;;;;;;1.90;1.43;;;14.50;99.90;;;;;;5049155;28;20420;-74
2023/05/16 09:38:57;;;;;;;4.30;1.70;;;14.70;99.90;;;;;;5046679;28;20417;-75
2023/05/16 09:41:22;;;;;;;3.80;1.33;;;14.70;99.00;;;;;;5047763;28;20479;-74
2023/05/16 09:43:48;;;;;;;3.83;1.50;;;14.80;98.90;;;;;;5048395;28;20181;-74
2023/05/16 09:46:14;;;;;;;4.83;1.80;;;14.90;99.40;;;;;;5048693;28;20264;-75
2023/05/16 09:48:43;;;;;;;3.90;1.60;;;15.10;99.80;;;;;;5048275;28;20698;-74
2023/05/16 09:51:11;;;;;;;1.90;1.30;;;15.20;98.40;;;;;;5048582;28;20409;-74
2023/05/16 09:53:38;;;;;;;12.07;2.00;;;15.20;98.90;;;;;;5048922;28;20474;-74
2023/05/16 09:56:05;;;;;;;2.00;1.07;;;15.30;98.70;;;;;;5049163;28;20417;-74
2023/05/16 09:58:33;;;;;;;5.23;1.57;;;15.30;99.20;;;;;;5048735;28;20420;-74
2023/05/16 10:01:00;;;;;;;2.43;1.13;;;15.50;98.90;;;;;;5048454;28;21103;-74
2023/05/16 10:03:26;;;;;;;4.90;1.60;;;15.60;98.70;;;;;;5030242;28;20490;-74
2023/05/16 10:05:53;;;;;;;4.30;1.20;;;15.60;97.00;;;;;;5030952;28;20419;-74
2023/05/16 10:08:24;;;;;;;4.37;2.07;;;15.60;97.70;;;;;;5048512;28;20470;-74
2023/05/16 10:10:59;;;;;;;3.20;1.50;;;15.50;97.20;;;;;;5030906;28;20405;-74
2023/05/16 10:13:29;;;;;;;3.40;1.30;;;15.50;97.60;;;;;;5030435;28;20423;-74
2023/05/16 10:15:56;;;;;;;1.30;1.00;;;15.50;97.80;;;;;;5048900;28;20765;-74
2023/05/16 10:18:30;;;;;;;3.40;1.20;;;15.50;98.10;;;;;;5030432;28;20447;-74
2023/05/16 10:21:02;;;;;;;5.57;1.47;;;15.40;96.70;;;;;;5048546;28;20574;-75
2023/05/16 10:23:29;;;;;;;6.80;2.10;;;15.50;97.60;;;;;;5048319;28;20420;-74
2023/05/16 10:25:57;;;;;;;3.07;1.10;;;15.60;97.30;;;;;;5048796;28;20507;-74
2023/05/16 10:28:23;;;;;;;3.17;1.40;;;15.60;96.90;;;;;;5048338;28;20408;-74
2023/05/16 10:30:50;;;;;;;6.10;1.20;;;15.60;97.00;;;;;;5046998;28;20485;-74
2023/05/16 10:33:18;;;;;;;1.30;1.10;;;15.70;97.20;;;;;;5048383;28;20511;-74
2023/05/16 10:35:45;;;;;;;4.40;1.50;;;15.70;96.40;;;;;;5045672;28;20432;-74
2023/05/16 10:38:13;;;;;;;3.00;0.97;;;15.80;96.90;;;;;;5044964;28;20423;-75
2023/05/16 10:40:40;;;;;;;2.93;1.07;;;15.70;96.60;;;;;;5052988;28;20578;-74
2023/05/16 10:43:07;;;;;;;3.00;1.33;;;15.70;97.00;;;;;;5048139;28;20578;-73
2023/05/16 10:45:38;;;;;;;3.77;1.20;;;15.70;96.00;;;;;;5048456;28;20836;-74
2023/05/16 10:48:05;;;;;;;3.33;1.10;;;15.60;96.30;;;;;;5048058;28;20447;-73
2023/05/16 10:50:37;;;;;;;2.60;1.30;;;15.60;96.70;;;;;;5048020;28;20417;-73
2023/05/16 10:53:16;;;;;;;4.63;1.63;;;15.50;96.80;;;;;;5033894;28;20484;-73
2023/05/16 10:56:02;;;;;;;4.27;1.93;;;15.50;96.90;;;;;;5049397;28;21114;-73
2023/05/16 10:58:34;;;;;;;4.83;1.80;;;15.40;97.30;;;;;;5047799;28;20495;-73
2023/05/16 11:01:41;;;;;;;7.90;1.70;;;15.30;96.60;;;;;;5005717;28;20487;-73
2023/05/16 11:04:09;;;;;;;4.97;2.07;;;15.30;96.90;;;;;;5043512;28;20424;-73
2023/05/16 11:06:40;;;;;;;4.33;1.90;;;15.10;97.00;;;;;;5047822;28;20744;-73
2023/05/16 11:09:09;;;;;;;3.90;1.27;;;15.20;97.70;;;;;;5047653;28;20412;-73
2023/05/16 11:11:38;;;;;;;4.20;1.07;;;15.30;98.60;;;;;;5051911;28;20475;-74
2023/05/16 11:14:04;;;;;;;3.50;1.37;;;15.40;98.90;;;;;;5050452;28;21086;-73
2023/05/16 11:16:30;;;;;;;4.47;1.30;;;15.60;99.30;;;;;;5052009;28;20508;-73
2023/05/16 11:19:06;;;;;;;3.67;1.80;;;15.80;99.00;;;;;;5051742;28;20189;-73
2023/05/16 11:22:27;;;;;;;4.23;1.57;;;15.90;98.40;;;;;;5051306;28;20217;-73
2023/05/16 11:25:02;;;;;;;3.27;1.23;;;16.00;98.50;;;;;;5047445;28;20424;-73
2023/05/16 11:27:32;;;;;;;7.97;1.93;;;16.10;98.40;;;;;;5051123;28;20415;-73
2023/05/16 11:30:18;;;;;;;5.00;1.87;;;16.10;98.00;;;;;;5051379;28;20444;-73
2023/05/16 11:32:45;;;;;;;3.93;2.10;;;16.00;97.40;;;;;;5051163;28;20505;-74
2023/05/16 11:35:14;;;;;;;3.30;1.60;;;16.10;97.70;;;;;;5051592;28;20430;-73
2023/05/16 11:37:40;;;;;;;5.53;2.20;;;16.10;98.30;;;;;;5050810;28;20416;-73
2023/05/16 11:40:08;;;;;;;5.70;1.70;;;16.10;97.10;;;;;;5016745;28;20439;-73
2023/05/16 11:42:43;;;;;;;5.20;2.00;;;16.00;97.80;;;;;;5033180;28;20478;-73
2023/05/16 11:45:08;;;;;;;4.17;1.50;;;16.10;97.80;;;;;;5025688;28;20424;-73
2023/05/16 11:47:38;;;;;;;2.90;1.63;;;16.00;98.10;;;;;;5048543;28;20503;-73
2023/05/16 11:50:12;;;;;;;5.30;1.73;;;15.90;98.20;;;;;;5051129;28;20646;-73
2023/05/16 11:52:39;;;;;;;3.87;1.87;;;15.80;98.70;;;;;;5032944;28;20812;-73
2023/05/16 11:55:06;;;;;;;6.57;1.80;;;15.70;99.10;;;;;;5050930;28;20420;-73
2023/05/16 11:57:32;;;;;;;3.43;1.33;;;15.70;99.90;;;;;;5050845;28;20416;-73
2023/05/16 12:00:16;;;;;;;2.13;1.50;;;15.60;99.90;;;;;;5033137;28;20427;-73
2023/05/16 12:02:43;;;;;;;6.70;1.80;;;15.50;99.90;;;;;;5050785;28;20455;-74
2023/05/16 12:05:10;;;;;;;2.93;1.50;;;15.50;99.90;;;;;;5033032;28;20405;-73
2023/05/16 12:07:36;;;;;;;4.27;1.57;;;15.50;99.90;;;;;;5050667;28;20423;-73
2023/05/16 12:10:06;;;;;;;5.03;1.37;;;15.50;99.90;;;;;;5050757;28;20416;-74
2023/05/16 12:12:33;;;;;;;2.63;1.13;;;15.60;99.90;;;;;;5033189;28;20432;-73
2023/05/16 12:14:59;;;;;;;2.70;1.40;;;15.80;99.90;;;;;;5050686;28;20417;-73
2023/05/16 12:17:24;;;;;;;4.20;1.63;;;15.90;99.90;;;;;;5050496;28;20484;-73
2023/05/16 12:19:51;;;;;;;2.37;1.63;;;16.00;99.90;;;;;;5050756;28;20177;-74
2023/05/16 12:22:17;;;;;;;3.07;1.70;;;16.10;99.90;;;;;;5050972;28;20806;-74
2023/05/16 12:24:43;;;;;;;3.37;1.20;;;16.20;99.90;;;;;;5049597;28;20421;-73
2023/05/16 12:27:09;;;;;;;3.40;1.20;;;16.20;99.90;;;;;;5050654;28;20412;-73
2023/05/16 12:29:34;;;;;;;6.57;1.70;;;16.20;98.70;;;;;;5050430;28;20185;-74
2023/05/16 12:32:00;;;;;;;1.53;1.00;;;16.30;99.90;;;;;;5050778;28;20436;-73
2023/05/16 12:34:28;;;;;;;3.83;1.60;;;16.30;99.80;;;;;;5015773;28;20178;-73
2023/05/16 12:36:54;;;;;;;2.50;1.70;;;16.30;99.50;;;;;;5050291;28;20184;-73
2023/05/16 12:39:21;;;;;;;2.70;1.20;;;16.20;99.10;;;;;;5050258;28;20417;-73
2023/05/16 12:41:47;;;;;;;2.73;1.17;;;16.10;98.60;;;;;;5050358;28;20460;-73
2023/05/16 12:44:18;;;;;;;2.90;1.97;;;16.10;99.70;;;;;;5050436;28;20430;-74
2023/05/16 12:46:50;;;;;;;2.80;1.40;;;16.10;99.60;;;;;;5050430;28;20568;-74